Terminal Aerodrome Forecast
Issued by NWS Spokane, WA

Home | Current Version | Previous Version | Text Only | Print | Product List | Glossary On
Versions: 1 2 3 4 5 6 7 8 9 10 11 12 13 14 15 16 17 18 19 20 21 22 23 24 25 26 27 28
000
FTUS46 KOTX 201733
TAFGEG
TAF
KGEG 201733Z 2018/2118 20008KT P6SM FEW100 SCT200 BKN250
     FM202100 24009KT P6SM SCT200
     FM210200 23004KT P6SM FEW200
     FM210800 10003KT P6SM FEW300
     FM211600 VRB03KT P6SM SCT300=

USA.gov is the U.S. government's official web portal to all federal, state and local government web resources and services.